createdAt,value
2022-11-14T00:00:41.748Z,23.33
2022-11-14T00:03:26.601Z,22.80
2022-11-14T00:06:11.765Z,22.87
2022-11-14T00:08:56.875Z,23.13
2022-11-14T00:11:41.682Z,23.33
2022-11-14T00:14:26.492Z,21.03
2022-11-14T00:17:11.510Z,22.37
2022-11-14T00:19:56.224Z,21.90
2022-11-14T00:22:41.134Z,22.97
2022-11-14T00:25:25.966Z,23.37
2022-11-14T00:28:10.975Z,22.37
2022-11-14T00:30:56.160Z,23.47
2022-11-14T00:33:41.347Z,23.37
2022-11-14T00:36:26.128Z,22.10
2022-11-14T00:39:14.602Z,22.63
2022-11-14T00:41:59.731Z,23.33
2022-11-14T00:44:44.652Z,23.83
2022-11-14T00:47:29.346Z,23.20
2022-11-14T00:50:15.413Z,21.63
2022-11-14T00:53:00.393Z,23.47
2022-11-14T00:55:45.313Z,22.90
2022-11-14T00:58:30.645Z,23.53
2022-11-14T01:01:15.801Z,24.07
2022-11-14T01:04:01.312Z,23.90
2022-11-14T01:06:46.455Z,23.27
2022-11-14T01:09:31.441Z,21.90
2022-11-14T01:12:16.481Z,23.13
2022-11-14T01:15:01.769Z,24.00
2022-11-14T01:17:46.734Z,22.97
2022-11-14T01:20:31.740Z,23.13
2022-11-14T01:23:16.922Z,22.80
2022-11-14T01:26:05.995Z,23.30
2022-11-14T01:28:51.016Z,23.40
2022-11-14T01:31:35.815Z,22.63
2022-11-14T01:34:20.655Z,22.10
2022-11-14T01:37:05.538Z,22.43
2022-11-14T01:39:50.333Z,21.80
2022-11-14T01:42:35.297Z,22.37
2022-11-14T01:45:38.927Z,21.37
2022-11-14T01:48:30.482Z,22.67
2022-11-14T01:51:21.671Z,21.83
2022-11-14T01:54:08.651Z,22.13
2022-11-14T01:56:56.726Z,22.10
2022-11-14T01:59:44.507Z,22.77
2022-11-14T02:02:29.481Z,22.87
2022-11-14T02:05:15.847Z,23.67
2022-11-14T02:08:01.086Z,23.10
2022-11-14T02:10:45.991Z,22.07
2022-11-14T02:13:31.104Z,21.13
2022-11-14T02:16:16.368Z,22.13
2022-11-14T02:19:01.700Z,21.83
2022-11-14T02:21:46.649Z,24.30
2022-11-14T02:24:31.659Z,23.63
2022-11-14T02:27:16.669Z,23.13
2022-11-14T02:30:09.909Z,24.17
2022-11-14T02:33:10.388Z,23.73
2022-11-14T02:35:56.241Z,22.53
2022-11-14T02:38:41.069Z,23.43
2022-11-14T02:41:26.043Z,24.93
2022-11-14T02:44:10.776Z,25.27
2022-11-14T02:46:55.737Z,25.93
2022-11-14T02:49:40.712Z,25.57
2022-11-14T02:52:25.595Z,24.93
2022-11-14T02:55:11.023Z,26.43
2022-11-14T02:57:55.802Z,26.17
2022-11-14T03:00:59.498Z,26.17
2022-11-14T03:03:46.255Z,25.57
2022-11-14T03:06:31.112Z,27.20
2022-11-14T03:09:15.913Z,27.83
2022-11-14T03:12:00.740Z,27.70
2022-11-14T03:14:45.505Z,26.97
2022-11-14T03:17:34.114Z,28.37
2022-11-14T03:20:19.321Z,28.37
2022-11-14T03:23:04.480Z,28.43
2022-11-14T03:25:49.444Z,28.53
2022-11-14T03:28:34.603Z,27.33
2022-11-14T03:31:19.706Z,28.77
2022-11-14T03:34:04.667Z,28.53
2022-11-14T03:36:49.901Z,28.67
2022-11-14T03:39:34.694Z,29.43
2022-11-14T03:42:19.728Z,29.63
2022-11-14T03:45:05.120Z,29.60
2022-11-14T03:47:50.148Z,29.57
2022-11-14T03:50:34.998Z,28.10
2022-11-14T03:53:19.923Z,31.07
2022-11-14T03:56:05.114Z,28.60
2022-11-14T03:58:49.980Z,28.13
2022-11-14T04:01:34.919Z,28.13
2022-11-14T04:04:19.683Z,28.73
2022-11-14T04:07:04.863Z,27.93
2022-11-14T04:09:50.204Z,28.50
2022-11-14T04:12:35.516Z,28.60
2022-11-14T04:15:20.821Z,28.87
2022-11-14T04:18:06.170Z,29.33
2022-11-14T04:20:51.458Z,29.93
2022-11-14T04:23:36.531Z,28.97
2022-11-14T04:26:21.484Z,36.50
2022-11-14T04:29:06.597Z,30.40
2022-11-14T04:31:51.775Z,27.83
2022-11-14T04:34:36.569Z,28.27
2022-11-14T04:37:21.512Z,27.90
2022-11-14T04:40:07.336Z,27.77
2022-11-14T04:42:52.109Z,27.50
2022-11-14T04:45:37.046Z,27.50
2022-11-14T04:48:22.288Z,27.33
2022-11-14T04:51:07.302Z,26.33
2022-11-14T04:53:52.438Z,26.60
2022-11-14T04:56:37.172Z,25.63
2022-11-14T04:59:21.955Z,26.27
2022-11-14T05:02:06.874Z,25.90
2022-11-14T05:04:52.115Z,32.55
2022-11-14T05:07:36.919Z,27.07
2022-11-14T05:10:21.924Z,27.23
2022-11-14T05:13:07.035Z,26.63
2022-11-14T05:15:51.907Z,26.37
2022-11-14T05:18:37.255Z,25.50
2022-11-14T05:21:22.145Z,24.13
2022-11-14T05:24:06.992Z,25.53
2022-11-14T05:26:51.768Z,32.50
2022-11-14T05:29:36.689Z,26.13
2022-11-14T05:32:22.055Z,25.50
2022-11-14T05:35:07.146Z,24.90
2022-11-14T05:37:56.075Z,24.93
2022-11-14T05:40:44.066Z,24.40
2022-11-14T05:43:29.168Z,23.13
2022-11-14T05:46:15.109Z,23.33
2022-11-14T05:49:00.052Z,23.60
2022-11-14T05:51:45.190Z,24.73
2022-11-14T05:54:30.113Z,23.73
2022-11-14T05:57:15.070Z,24.07
2022-11-14T05:59:59.901Z,24.83
2022-11-14T06:02:46.169Z,24.80
2022-11-14T06:05:31.473Z,23.30
2022-11-14T06:08:16.506Z,23.07
2022-11-14T06:11:02.034Z,23.73
2022-11-14T06:13:47.408Z,22.53
2022-11-14T06:16:32.510Z,24.27
2022-11-14T06:19:17.501Z,23.00
2022-11-14T06:22:02.651Z,23.13
2022-11-14T06:24:47.588Z,25.13
2022-11-14T06:27:32.596Z,24.97
2022-11-14T06:30:18.066Z,23.60
2022-11-14T06:33:03.019Z,25.30
2022-11-14T06:35:47.910Z,26.37
2022-11-14T06:38:33.202Z,26.53
2022-11-14T06:41:19.976Z,25.87
2022-11-14T06:44:07.405Z,30.10
2022-11-14T06:46:52.167Z,27.93
2022-11-14T06:49:40.532Z,28.53
2022-11-14T06:52:26.665Z,27.00
2022-11-14T06:55:11.830Z,26.40
2022-11-14T06:57:56.974Z,26.47
2022-11-14T07:00:41.820Z,26.03
2022-11-14T07:03:26.841Z,26.33
2022-11-14T07:06:14.207Z,25.77
2022-11-14T07:08:59.996Z,24.50
2022-11-14T07:11:46.853Z,23.00
2022-11-14T07:14:31.794Z,21.73
2022-11-14T07:17:16.534Z,21.90
2022-11-14T07:20:01.594Z,20.43
2022-11-14T07:22:47.144Z,20.77
2022-11-14T07:25:32.097Z,24.67
2022-11-14T07:28:16.884Z,21.13
2022-11-14T07:31:05.597Z,21.27
2022-11-14T07:33:50.608Z,20.50
2022-11-14T07:36:35.640Z,20.17
2022-11-14T07:39:20.459Z,20.00
2022-11-14T07:42:05.526Z,19.87
2022-11-14T07:44:50.349Z,19.40
2022-11-14T07:47:35.343Z,20.13
2022-11-14T07:50:20.632Z,19.33
2022-11-14T07:53:06.333Z,19.50
2022-11-14T07:55:51.241Z,20.07
2022-11-14T07:58:36.532Z,19.77
2022-11-14T08:01:21.401Z,21.17
2022-11-14T08:04:06.663Z,19.77
2022-11-14T08:06:51.682Z,20.97
2022-11-14T08:09:36.864Z,20.70
2022-11-14T08:12:22.143Z,20.17
2022-11-14T08:15:07.961Z,21.10
2022-11-14T08:17:53.114Z,20.93
2022-11-14T08:20:38.247Z,20.27
2022-11-14T08:23:23.224Z,20.37
2022-11-14T08:26:08.115Z,20.27
2022-11-14T08:28:54.219Z,22.40
2022-11-14T08:31:39.197Z,20.77
2022-11-14T08:34:25.216Z,21.03
2022-11-14T08:37:10.472Z,20.27
2022-11-14T08:39:55.558Z,21.93
2022-11-14T08:42:40.478Z,21.07
2022-11-14T08:45:25.368Z,21.93
2022-11-14T08:48:11.372Z,21.97
2022-11-14T08:50:56.591Z,22.33
2022-11-14T08:53:41.354Z,22.67
2022-11-14T08:56:26.211Z,21.83
2022-11-14T08:59:11.070Z,23.17
2022-11-14T09:01:55.964Z,23.40
2022-11-14T09:04:40.967Z,22.60
2022-11-14T09:07:26.302Z,21.93
2022-11-14T09:10:11.695Z,23.83
2022-11-14T09:12:56.949Z,21.37
2022-11-14T09:15:42.525Z,22.03
2022-11-14T09:18:27.857Z,21.60
2022-11-14T09:21:13.072Z,20.83
2022-11-14T09:24:01.671Z,20.93
2022-11-14T09:26:47.641Z,21.23
2022-11-14T09:29:35.276Z,21.17
2022-11-14T09:32:20.305Z,20.53
2022-11-14T09:35:05.326Z,21.17
2022-11-14T09:37:50.498Z,20.77
2022-11-14T09:40:55.609Z,21.80
2022-11-14T09:43:43.538Z,20.77
2022-11-14T09:46:39.212Z,20.23
2022-11-14T09:49:30.808Z,19.87
2022-11-14T09:52:15.553Z,19.90
2022-11-14T09:55:09.572Z,19.57
2022-11-14T09:57:54.867Z,20.03
2022-11-14T10:00:46.811Z,20.40
2022-11-14T10:03:49.399Z,21.20
2022-11-14T10:07:00.876Z,20.67
2022-11-14T10:10:06.721Z,19.10
2022-11-14T10:13:08.723Z,18.70
2022-11-14T10:15:59.761Z,17.50
2022-11-14T10:18:44.777Z,21.17
2022-11-14T10:21:36.440Z,19.67
2022-11-14T10:24:21.673Z,18.13
2022-11-14T10:27:10.741Z,18.60
2022-11-14T10:30:03.276Z,19.93
2022-11-14T10:32:56.248Z,18.70
2022-11-14T10:35:43.696Z,19.40
2022-11-14T10:38:35.313Z,17.70
2022-11-14T10:41:49.878Z,20.60
2022-11-14T10:44:29.814Z,17.97
2022-11-14T10:47:16.752Z,18.10
2022-11-14T10:50:05.121Z,17.47
2022-11-14T10:52:52.913Z,18.00
2022-11-14T10:55:57.794Z,17.70
2022-11-14T10:58:49.135Z,17.63
2022-11-14T11:01:37.745Z,17.27
2022-11-14T11:04:30.559Z,18.13
2022-11-14T11:07:37.633Z,17.20
2022-11-14T11:10:41.979Z,17.10
2022-11-14T11:13:31.780Z,17.43
2022-11-14T11:16:19.590Z,16.87
2022-11-14T11:19:14.279Z,18.30
2022-11-14T11:21:59.195Z,17.13
2022-11-14T11:24:43.964Z,17.73
2022-11-14T11:27:29.734Z,19.43
2022-11-14T11:30:23.363Z,20.33
2022-11-14T11:33:15.275Z,17.20
2022-11-14T11:36:10.990Z,17.60
2022-11-14T11:38:56.005Z,16.63
2022-11-14T11:44:47.864Z,15.70
2022-11-14T11:47:34.234Z,16.70
2022-11-14T11:50:20.986Z,16.23
2022-11-14T11:53:12.669Z,17.30
2022-11-14T11:56:18.311Z,16.80
2022-11-14T11:59:22.086Z,17.43
2022-11-14T12:02:24.023Z,17.20
2022-11-14T12:05:12.804Z,16.20
2022-11-14T12:08:00.972Z,16.70
2022-11-14T12:10:46.026Z,15.83
2022-11-14T12:13:42.884Z,16.33
2022-11-14T12:16:34.177Z,15.00
2022-11-14T12:19:31.307Z,14.87
2022-11-14T12:22:25.327Z,14.43
2022-11-14T12:25:22.423Z,16.52
2022-11-14T12:28:15.689Z,15.03
2022-11-14T12:31:02.574Z,17.07
2022-11-14T12:33:52.889Z,14.43
2022-11-14T12:36:39.751Z,14.10
2022-11-14T12:39:25.950Z,13.43
2022-11-14T12:42:14.518Z,13.57
2022-11-14T12:44:59.545Z,13.37
2022-11-14T12:48:04.582Z,13.30
2022-11-14T12:50:49.873Z,13.10
2022-11-14T12:53:39.408Z,12.43
2022-11-14T12:56:24.277Z,14.37
2022-11-14T12:59:27.744Z,12.60
2022-11-14T13:02:39.074Z,12.07
2022-11-14T13:05:36.266Z,12.10
2022-11-14T13:08:39.913Z,11.97
2022-11-14T13:12:00.364Z,12.13
2022-11-14T13:15:11.461Z,15.27
2022-11-14T13:18:41.591Z,12.73
2022-11-14T13:21:46.322Z,13.60
2022-11-14T13:24:51.536Z,12.40
2022-11-14T13:28:06.041Z,12.50
2022-11-14T13:31:00.678Z,12.23
2022-11-14T13:33:47.327Z,12.40
2022-11-14T13:36:41.268Z,11.87
2022-11-14T13:39:30.123Z,11.97
2022-11-14T13:42:18.577Z,12.57
2022-11-14T13:45:16.404Z,14.13
2022-11-14T13:48:20.076Z,12.47
2022-11-14T13:51:36.231Z,13.10
2022-11-14T13:54:18.185Z,12.23
2022-11-14T13:57:03.392Z,12.70
2022-11-14T13:59:57.546Z,12.70
2022-11-14T14:02:42.524Z,17.57
2022-11-14T14:05:27.626Z,14.63
2022-11-14T14:08:35.777Z,12.77
2022-11-14T14:11:32.540Z,26.83
2022-11-14T14:14:17.516Z,20.43
2022-11-14T14:17:15.349Z,15.37
2022-11-14T14:20:19.256Z,14.93
2022-11-14T14:23:04.050Z,12.47
2022-11-14T14:26:12.194Z,15.33
2022-11-14T14:28:57.453Z,12.97
2022-11-14T14:31:42.767Z,13.83
2022-11-14T14:34:29.629Z,12.73
2022-11-14T14:37:16.586Z,12.97
2022-11-14T14:40:06.061Z,13.43
2022-11-14T14:42:51.200Z,13.67
2022-11-14T14:45:51.971Z,18.13
2022-11-14T14:48:40.267Z,14.63
2022-11-14T14:51:38.020Z,13.57
2022-11-14T14:54:24.613Z,12.43
2022-11-14T14:57:16.872Z,14.43
2022-11-14T15:00:02.876Z,14.33
2022-11-14T15:02:49.080Z,17.30
2022-11-14T15:05:33.846Z,21.00
2022-11-14T15:08:19.186Z,29.63
2022-11-14T15:11:04.417Z,21.90
2022-11-14T15:13:52.803Z,20.70
2022-11-14T15:16:38.051Z,22.60
2022-11-14T15:19:24.388Z,21.90
2022-11-14T15:22:10.847Z,20.73
2022-11-14T15:25:14.308Z,20.37
2022-11-14T15:28:00.339Z,18.03
2022-11-14T15:31:05.849Z,17.07
2022-11-14T15:34:20.848Z,17.60
2022-11-14T15:37:16.177Z,18.10
2022-11-14T15:40:15.757Z,17.00
2022-11-14T15:43:01.481Z,16.27
2022-11-14T15:45:46.614Z,16.63
2022-11-14T15:48:32.046Z,22.83
2022-11-14T15:51:17.117Z,18.20
2022-11-14T15:54:02.113Z,17.10
2022-11-14T15:56:47.072Z,18.30
2022-11-14T15:59:32.277Z,20.00
2022-11-14T16:02:19.212Z,20.40
2022-11-14T16:05:05.095Z,19.20
2022-11-14T16:07:50.355Z,18.03
2022-11-14T16:10:35.279Z,17.00
2022-11-14T16:13:20.264Z,18.43
2022-11-14T16:16:05.470Z,18.40
2022-11-14T16:18:50.719Z,16.60
2022-11-14T16:21:37.185Z,17.87
2022-11-14T16:24:23.141Z,18.63
2022-11-14T16:27:08.334Z,16.30
2022-11-14T16:29:53.533Z,16.27
2022-11-14T16:32:38.478Z,19.80
2022-11-14T16:35:24.661Z,19.27
2022-11-14T16:38:12.380Z,16.93
2022-11-14T16:40:57.629Z,16.50
2022-11-14T16:43:42.449Z,17.33
2022-11-14T16:46:27.303Z,19.37
2022-11-14T16:49:16.999Z,20.97
2022-11-14T16:52:08.561Z,19.43
2022-11-14T16:54:53.861Z,19.60
2022-11-14T16:57:38.985Z,19.10
2022-11-14T17:00:24.540Z,20.30
2022-11-14T17:03:09.719Z,32.00
2022-11-14T17:05:55.015Z,22.40
2022-11-14T17:08:39.800Z,20.10
2022-11-14T17:11:25.022Z,19.10
2022-11-14T17:14:09.934Z,16.93
2022-11-14T17:16:54.940Z,18.20
2022-11-14T17:19:45.829Z,18.00
2022-11-14T17:22:30.883Z,17.50
2022-11-14T17:25:16.335Z,18.03
2022-11-14T17:28:01.505Z,15.90
2022-11-14T17:30:46.658Z,13.97
2022-11-14T17:33:32.043Z,13.83
2022-11-14T17:36:18.152Z,13.77
2022-11-14T17:39:03.479Z,13.10
2022-11-14T17:41:48.801Z,12.60
2022-11-14T17:44:33.839Z,13.33
2022-11-14T17:47:19.243Z,14.40
2022-11-14T17:50:04.941Z,14.33
2022-11-14T17:52:51.368Z,14.90
2022-11-14T17:55:36.291Z,15.07
2022-11-14T17:58:21.780Z,14.50
2022-11-14T18:01:10.990Z,14.67
2022-11-14T18:03:57.615Z,13.87
2022-11-14T18:06:45.852Z,15.13
2022-11-14T18:09:30.923Z,14.90
2022-11-14T18:12:15.822Z,14.83
2022-11-14T18:15:01.335Z,16.70
2022-11-14T18:17:46.781Z,15.50
2022-11-14T18:20:32.057Z,17.57
2022-11-14T18:23:17.454Z,16.53
2022-11-14T18:26:08.565Z,16.00
2022-11-14T18:29:01.833Z,16.37
2022-11-14T18:31:48.239Z,16.80
2022-11-14T18:34:33.628Z,16.03
2022-11-14T18:37:18.895Z,16.40
2022-11-14T18:40:04.346Z,16.37
2022-11-14T18:42:49.683Z,18.10
2022-11-14T18:45:34.898Z,15.30
2022-11-14T18:48:19.791Z,16.40
2022-11-14T18:51:06.536Z,17.47
2022-11-14T18:53:51.785Z,16.60
2022-11-14T18:56:36.672Z,17.50
2022-11-14T18:59:21.390Z,16.07
2022-11-14T19:02:06.510Z,16.03
2022-11-14T19:04:51.643Z,16.47
2022-11-14T19:07:36.686Z,16.17
2022-11-14T19:10:22.018Z,17.40
2022-11-14T19:13:06.802Z,17.00
2022-11-14T19:15:51.743Z,16.90
2022-11-14T19:18:36.603Z,17.73
2022-11-14T19:21:21.513Z,16.97
2022-11-14T19:24:06.737Z,16.43
2022-11-14T19:26:51.671Z,17.13
2022-11-14T19:29:36.573Z,16.57
2022-11-14T19:32:21.681Z,16.53
2022-11-14T19:35:06.819Z,18.70
2022-11-14T19:37:51.838Z,16.83
2022-11-14T19:40:37.262Z,16.67
2022-11-14T19:43:22.675Z,17.20
2022-11-14T19:46:07.455Z,18.20
2022-11-14T19:48:56.261Z,18.97
2022-11-14T19:51:41.045Z,19.53
2022-11-14T19:54:25.944Z,19.27
2022-11-14T19:57:10.902Z,20.73
2022-11-14T19:59:55.832Z,19.20
2022-11-14T20:02:40.921Z,20.10
2022-11-14T20:05:26.139Z,19.10
2022-11-14T20:08:10.973Z,20.87
2022-11-14T20:10:55.798Z,21.70
2022-11-14T20:13:42.424Z,21.13
2022-11-14T20:16:28.330Z,21.27
2022-11-14T20:19:14.136Z,22.13
2022-11-14T20:21:59.133Z,20.63
2022-11-14T20:24:44.470Z,21.90
2022-11-14T20:27:29.592Z,21.03
2022-11-14T20:30:15.015Z,19.60
2022-11-14T20:33:00.419Z,19.47
2022-11-14T20:35:45.680Z,19.93
2022-11-14T20:38:31.417Z,19.23
2022-11-14T20:41:17.018Z,19.57
2022-11-14T20:44:03.884Z,19.33
2022-11-14T20:46:49.279Z,20.60
2022-11-14T20:49:34.199Z,20.90
2022-11-14T20:52:19.116Z,21.90
2022-11-14T20:55:11.454Z,21.97
2022-11-14T20:57:56.762Z,21.13
2022-11-14T21:00:42.152Z,21.53
2022-11-14T21:03:27.549Z,21.43
2022-11-14T21:06:13.421Z,20.63
2022-11-14T21:08:58.298Z,21.63
2022-11-14T21:11:43.157Z,22.27
2022-11-14T21:14:27.973Z,21.17
2022-11-14T21:17:12.886Z,21.90
2022-11-14T21:19:58.380Z,22.60
2022-11-14T21:22:44.612Z,22.97
2022-11-14T21:25:29.913Z,23.80
2022-11-14T21:28:14.852Z,22.10
2022-11-14T21:31:00.837Z,23.07
2022-11-14T21:33:47.055Z,23.20
2022-11-14T21:36:47.898Z,24.83
2022-11-14T21:39:32.874Z,24.30
2022-11-14T21:42:18.855Z,24.37
2022-11-14T21:45:04.128Z,24.73
2022-11-14T21:47:49.184Z,23.80
2022-11-14T21:50:34.199Z,22.83
2022-11-14T21:53:18.995Z,22.93
2022-11-14T21:56:07.680Z,24.63
2022-11-14T21:59:12.442Z,23.93
2022-11-14T22:02:16.290Z,23.57
2022-11-14T22:05:01.575Z,21.67
2022-11-14T22:07:46.807Z,21.43
2022-11-14T22:10:31.916Z,22.67
2022-11-14T22:13:17.058Z,23.03
2022-11-14T22:16:05.596Z,22.23
2022-11-14T22:18:54.071Z,21.60
2022-11-14T22:21:38.950Z,22.43
2022-11-14T22:24:23.889Z,22.23
2022-11-14T22:27:08.606Z,22.10
2022-11-14T22:29:53.668Z,21.13
2022-11-14T22:32:38.445Z,21.77
2022-11-14T22:35:26.304Z,21.90
2022-11-14T22:38:11.480Z,19.40
2022-11-14T22:40:57.063Z,21.00
2022-11-14T22:43:42.763Z,21.57
2022-11-14T22:46:27.866Z,20.83
2022-11-14T22:49:17.168Z,21.10
2022-11-14T22:52:04.627Z,21.80
2022-11-14T22:54:49.631Z,22.40
2022-11-14T22:57:34.525Z,21.13
2022-11-14T23:00:19.544Z,21.47
2022-11-14T23:03:04.425Z,21.50
2022-11-14T23:05:49.759Z,22.00
2022-11-14T23:08:34.928Z,22.70
2022-11-14T23:11:21.315Z,21.13
2022-11-14T23:14:06.523Z,21.97
2022-11-14T23:16:51.377Z,22.60
2022-11-14T23:19:36.284Z,21.73
2022-11-14T23:22:21.093Z,21.97
2022-11-14T23:25:06.209Z,22.13
2022-11-14T23:27:51.297Z,29.20
2022-11-14T23:30:36.280Z,25.17
2022-11-14T23:33:21.193Z,24.10
2022-11-14T23:36:06.140Z,22.80
2022-11-14T23:38:54.675Z,23.47
2022-11-14T23:41:39.773Z,23.47
2022-11-14T23:44:24.798Z,24.07
2022-11-14T23:47:09.660Z,24.97
2022-11-14T23:49:54.596Z,24.87
2022-11-14T23:52:39.560Z,24.07
2022-11-14T23:55:24.405Z,25.80
2022-11-14T23:58:09.396Z,25.20
